Klamath Falls, OR

1:39 AM PDT on October 26, 2014 (GMT -0700)
Klamath Falls City Schools | Change Station
CLOSE
Current Station
Personal Weather Station
Location: Klamath Falls, OR
Elevation: 4104 ft
Nearby Weather Stations

Elev 4104 ft 42.22 °N, 121.75 °W | Updated 14 seconds ago

Partly Cloudy
Partly Cloudy
39.0 °F
Feels Like 39 °F
N
0.0
Wind Variable Wind from West
Gusts 10.0 mph

Today
High -- | Low -- °F
--% Chance of Precip.
Yesterday
High -- | Low -- °F
Precip. -- in
7:32 AM 6:08 PM
Waxing Crescent, 6% visible
Pressure 30.02 in
Visibility 10.0 miles
Clouds Clear
Windchill 39 °F
Dew Point 37 °F
Humidity 94%
Rainfall 0.00 in
Snow Depth Not available.
UV 0 out of 12
Pollen .40 out of 12
Air Quality Not available.
Flu Activity Sporadic
METAR KLMT 260753Z AUTO 27012KT 10SM CLR 04/01 A3005 RMK AO2 SLP165 T00440006 401440044

More Conditions Fewer Conditions

Pressure 30.02 in
Visibility 10.0 miles
Clouds Clear
Windchill 39 °F
Dew Point 37 °F
Humidity 94%
Rainfall 0.00 in
Snow Depth Not available.
UV 0 out of 12
Pollen .40 out of 12
Air Quality Not available.
Flu Activity Sporadic
METAR KLMT 260753Z AUTO 27012KT 10SM CLR 04/01 A3005 RMK AO2 SLP165 T00440006 401440044

More Conditions Fewer Conditions

10-Day Weather Forecast

Almanac

Astronomy

Oct. 26, 2014 Rise Set
Actual Time 7:32 AM PDT 6:08 PM PDT
Civil Twilight 7:04 AM PDT 6:37 PM PDT
Nautical Twilight 6:31 AM PDT 7:10 PM PDT
Astronomical Twilight 5:58 AM PDT 7:42 PM PDT
Moon 10:18 AM PDT 8:22 PM PDT
Length of Visible Light 11h 33m
Length of Day
10h 35m
Tomorrow will be 2m 36s shorter.
Waxing Crescent, 6% of the Moon is Illuminated
Today
Waxing Crescent
Oct 30
First Quarter
Nov 6
Full
Nov 14
Last Quarter
Nov 22
New

Today's Extremes

State Highs State Lows

Community

WunderPhotos

Upload Photos

1,765,127 photos uploaded!

Nearby

Snow Depth

Station Depth Elevation
Strawberry 1 in 5760 ft
Fourmile Lake 0 in 6000 ft
Billie Creek Divide 0 in 5300 ft
Cold Springs Camp 0 in 6100 ft
Gerber Reservoir 0 in 4850 ft

Earthquake Activity

City Distance Mag. Time & Date
No recent earthquake activity has been reported nearby.
Minimum magnitude displayed is 2.5.

Coastal Water Temperatures

Place Temperature
No Stations Reporting

Nearby Weather Stations